sensor_id;sensor_type;location;lat;lon;timestamp;P1;durP1;ratioP1;P2;durP2;ratioP2
8574;SDS011;4325;42.520;27.448;2022-10-31T00:00:05;14.60;;;9.20;;
8574;SDS011;4325;42.520;27.448;2022-10-31T00:02:34;13.10;;;9.30;;
8574;SDS011;4325;42.520;27.448;2022-10-31T00:05:01;12.57;;;9.50;;
8574;SDS011;4325;42.520;27.448;2022-10-31T00:07:29;16.70;;;9.53;;
8574;SDS011;4325;42.520;27.448;2022-10-31T00:09:56;12.20;;;9.90;;
8574;SDS011;4325;42.520;27.448;2022-10-31T00:12:23;12.77;;;8.90;;
8574;SDS011;4325;42.520;27.448;2022-10-31T00:14:49;12.00;;;9.03;;
8574;SDS011;4325;42.520;27.448;2022-10-31T00:17:16;10.57;;;9.00;;
8574;SDS011;4325;42.520;27.448;2022-10-31T00:19:43;12.20;;;9.73;;
8574;SDS011;4325;42.520;27.448;2022-10-31T00:22:10;10.30;;;8.90;;
8574;SDS011;4325;42.520;27.448;2022-10-31T00:24:38;12.27;;;9.43;;
8574;SDS011;4325;42.520;27.448;2022-10-31T00:27:05;12.50;;;9.17;;
8574;SDS011;4325;42.520;27.448;2022-10-31T00:29:32;16.07;;;9.97;;
8574;SDS011;4325;42.520;27.448;2022-10-31T00:31:58;12.80;;;9.30;;
8574;SDS011;4325;42.520;27.448;2022-10-31T00:34:25;14.87;;;8.93;;
8574;SDS011;4325;42.520;27.448;2022-10-31T00:36:52;12.27;;;9.17;;
8574;SDS011;4325;42.520;27.448;2022-10-31T00:39:19;16.97;;;8.77;;
8574;SDS011;4325;42.520;27.448;2022-10-31T00:41:47;13.27;;;8.57;;
8574;SDS011;4325;42.520;27.448;2022-10-31T00:44:14;10.67;;;8.07;;
8574;SDS011;4325;42.520;27.448;2022-10-31T00:46:41;12.93;;;8.23;;
8574;SDS011;4325;42.520;27.448;2022-10-31T00:49:07;20.03;;;9.17;;
8574;SDS011;4325;42.520;27.448;2022-10-31T00:51:34;14.50;;;8.27;;
8574;SDS011;4325;42.520;27.448;2022-10-31T00:54:01;8.53;;;7.13;;
8574;SDS011;4325;42.520;27.448;2022-10-31T00:56:28;9.33;;;7.30;;
8574;SDS011;4325;42.520;27.448;2022-10-31T00:58:56;11.53;;;6.93;;
8574;SDS011;4325;42.520;27.448;2022-10-31T01:01:23;13.47;;;7.50;;
8574;SDS011;4325;42.520;27.448;2022-10-31T01:03:50;12.97;;;7.40;;
8574;SDS011;4325;42.520;27.448;2022-10-31T01:06:17;13.37;;;7.10;;
8574;SDS011;4325;42.520;27.448;2022-10-31T01:08:44;10.03;;;7.57;;
8574;SDS011;4325;42.520;27.448;2022-10-31T01:11:14;10.77;;;7.43;;
8574;SDS011;4325;42.520;27.448;2022-10-31T01:13:43;9.30;;;7.17;;
8574;SDS011;4325;42.520;27.448;2022-10-31T01:16:12;11.70;;;7.60;;
8574;SDS011;4325;42.520;27.448;2022-10-31T01:18:41;10.63;;;7.90;;
8574;SDS011;4325;42.520;27.448;2022-10-31T01:21:09;11.80;;;8.70;;
8574;SDS011;4325;42.520;27.448;2022-10-31T01:23:37;14.53;;;8.60;;
8574;SDS011;4325;42.520;27.448;2022-10-31T01:26:06;10.50;;;8.40;;
8574;SDS011;4325;42.520;27.448;2022-10-31T01:28:34;12.50;;;8.77;;
8574;SDS011;4325;42.520;27.448;2022-10-31T01:31:03;15.20;;;8.60;;
8574;SDS011;4325;42.520;27.448;2022-10-31T01:33:33;13.90;;;9.23;;
8574;SDS011;4325;42.520;27.448;2022-10-31T01:36:00;15.37;;;7.80;;
8574;SDS011;4325;42.520;27.448;2022-10-31T01:38:27;17.93;;;9.10;;
8574;SDS011;4325;42.520;27.448;2022-10-31T01:40:54;14.40;;;8.63;;
8574;SDS011;4325;42.520;27.448;2022-10-31T01:43:21;16.10;;;10.10;;
8574;SDS011;4325;42.520;27.448;2022-10-31T01:45:49;14.43;;;9.40;;
8574;SDS011;4325;42.520;27.448;2022-10-31T01:48:20;16.30;;;9.00;;
8574;SDS011;4325;42.520;27.448;2022-10-31T01:50:52;12.40;;;8.00;;
8574;SDS011;4325;42.520;27.448;2022-10-31T01:53:21;13.17;;;8.57;;
8574;SDS011;4325;42.520;27.448;2022-10-31T01:55:49;11.70;;;7.97;;
8574;SDS011;4325;42.520;27.448;2022-10-31T01:58:18;15.13;;;9.37;;
8574;SDS011;4325;42.520;27.448;2022-10-31T02:00:49;17.07;;;9.83;;
8574;SDS011;4325;42.520;27.448;2022-10-31T02:03:20;12.17;;;9.20;;
8574;SDS011;4325;42.520;27.448;2022-10-31T02:05:49;13.77;;;8.73;;
8574;SDS011;4325;42.520;27.448;2022-10-31T02:08:18;14.73;;;7.37;;
8574;SDS011;4325;42.520;27.448;2022-10-31T02:10:49;13.07;;;6.87;;
8574;SDS011;4325;42.520;27.448;2022-10-31T02:13:16;9.53;;;7.30;;
8574;SDS011;4325;42.520;27.448;2022-10-31T02:15:44;8.20;;;7.20;;
8574;SDS011;4325;42.520;27.448;2022-10-31T02:18:13;12.23;;;7.20;;
8574;SDS011;4325;42.520;27.448;2022-10-31T02:20:42;17.30;;;7.70;;
8574;SDS011;4325;42.520;27.448;2022-10-31T02:23:26;13.37;;;6.30;;
8574;SDS011;4325;42.520;27.448;2022-10-31T02:26:16;9.70;;;6.70;;
8574;SDS011;4325;42.520;27.448;2022-10-31T02:29:13;10.97;;;6.73;;
8574;SDS011;4325;42.520;27.448;2022-10-31T02:32:01;8.63;;;5.97;;
8574;SDS011;4325;42.520;27.448;2022-10-31T02:34:37;12.23;;;6.63;;
8574;SDS011;4325;42.520;27.448;2022-10-31T02:37:11;10.30;;;6.93;;
8574;SDS011;4325;42.520;27.448;2022-10-31T02:39:44;8.63;;;6.37;;
8574;SDS011;4325;42.520;27.448;2022-10-31T02:42:16;14.37;;;6.37;;
8574;SDS011;4325;42.520;27.448;2022-10-31T02:44:51;6.80;;;5.70;;
8574;SDS011;4325;42.520;27.448;2022-10-31T02:47:28;10.70;;;6.60;;
8574;SDS011;4325;42.520;27.448;2022-10-31T02:49:59;11.77;;;8.30;;
8574;SDS011;4325;42.520;27.448;2022-10-31T02:52:30;18.77;;;11.20;;
8574;SDS011;4325;42.520;27.448;2022-10-31T02:55:08;15.70;;;9.50;;
8574;SDS011;4325;42.520;27.448;2022-10-31T02:57:36;16.70;;;7.90;;
8574;SDS011;4325;42.520;27.448;2022-10-31T03:00:06;12.27;;;7.17;;
8574;SDS011;4325;42.520;27.448;2022-10-31T03:02:42;12.87;;;7.67;;
8574;SDS011;4325;42.520;27.448;2022-10-31T03:08:12;10.30;;;6.73;;
8574;SDS011;4325;42.520;27.448;2022-10-31T03:10:49;13.37;;;8.50;;
8574;SDS011;4325;42.520;27.448;2022-10-31T03:13:22;11.80;;;6.53;;
8574;SDS011;4325;42.520;27.448;2022-10-31T03:16:02;11.17;;;7.30;;
8574;SDS011;4325;42.520;27.448;2022-10-31T03:18:37;13.87;;;6.73;;
8574;SDS011;4325;42.520;27.448;2022-10-31T03:21:07;13.97;;;7.57;;
8574;SDS011;4325;42.520;27.448;2022-10-31T03:23:39;10.77;;;7.23;;
8574;SDS011;4325;42.520;27.448;2022-10-31T03:26:09;11.33;;;7.57;;
8574;SDS011;4325;42.520;27.448;2022-10-31T03:28:39;12.07;;;7.77;;
8574;SDS011;4325;42.520;27.448;2022-10-31T03:31:10;10.70;;;6.70;;
8574;SDS011;4325;42.520;27.448;2022-10-31T03:33:44;11.97;;;6.87;;
8574;SDS011;4325;42.520;27.448;2022-10-31T03:36:13;19.10;;;8.73;;
8574;SDS011;4325;42.520;27.448;2022-10-31T03:38:42;12.87;;;6.57;;
8574;SDS011;4325;42.520;27.448;2022-10-31T03:41:11;17.97;;;10.17;;
8574;SDS011;4325;42.520;27.448;2022-10-31T03:43:42;16.17;;;6.70;;
8574;SDS011;4325;42.520;27.448;2022-10-31T03:46:14;12.57;;;7.23;;
8574;SDS011;4325;42.520;27.448;2022-10-31T03:48:41;13.57;;;7.57;;
8574;SDS011;4325;42.520;27.448;2022-10-31T03:51:10;8.37;;;6.80;;
8574;SDS011;4325;42.520;27.448;2022-10-31T03:53:45;10.23;;;7.50;;
8574;SDS011;4325;42.520;27.448;2022-10-31T03:56:15;12.27;;;7.50;;
8574;SDS011;4325;42.520;27.448;2022-10-31T03:58:52;19.30;;;8.50;;
8574;SDS011;4325;42.520;27.448;2022-10-31T04:01:25;21.60;;;11.00;;
8574;SDS011;4325;42.520;27.448;2022-10-31T04:03:53;21.67;;;9.73;;
8574;SDS011;4325;42.520;27.448;2022-10-31T04:06:23;38.43;;;9.30;;
8574;SDS011;4325;42.520;27.448;2022-10-31T04:08:53;35.33;;;8.97;;
8574;SDS011;4325;42.520;27.448;2022-10-31T04:11:25;18.27;;;8.67;;
8574;SDS011;4325;42.520;27.448;2022-10-31T04:13:56;27.93;;;9.33;;
8574;SDS011;4325;42.520;27.448;2022-10-31T04:16:25;13.80;;;8.47;;
8574;SDS011;4325;42.520;27.448;2022-10-31T04:18:53;18.60;;;8.67;;
8574;SDS011;4325;42.520;27.448;2022-10-31T04:21:25;15.13;;;8.03;;
8574;SDS011;4325;42.520;27.448;2022-10-31T04:23:55;17.57;;;9.00;;
8574;SDS011;4325;42.520;27.448;2022-10-31T04:26:22;17.10;;;9.07;;
8574;SDS011;4325;42.520;27.448;2022-10-31T04:28:49;21.80;;;9.07;;
8574;SDS011;4325;42.520;27.448;2022-10-31T04:31:16;15.10;;;9.23;;
8574;SDS011;4325;42.520;27.448;2022-10-31T04:33:43;16.13;;;9.40;;
8574;SDS011;4325;42.520;27.448;2022-10-31T04:36:10;26.73;;;11.47;;
8574;SDS011;4325;42.520;27.448;2022-10-31T04:38:38;21.17;;;9.13;;
8574;SDS011;4325;42.520;27.448;2022-10-31T04:41:05;21.30;;;10.73;;
8574;SDS011;4325;42.520;27.448;2022-10-31T04:43:32;17.90;;;11.60;;
8574;SDS011;4325;42.520;27.448;2022-10-31T04:45:58;20.90;;;10.17;;
8574;SDS011;4325;42.520;27.448;2022-10-31T04:48:25;18.63;;;9.43;;
8574;SDS011;4325;42.520;27.448;2022-10-31T04:50:52;15.13;;;11.07;;
8574;SDS011;4325;42.520;27.448;2022-10-31T04:53:19;33.33;;;11.77;;
8574;SDS011;4325;42.520;27.448;2022-10-31T04:55:47;22.93;;;15.73;;
8574;SDS011;4325;42.520;27.448;2022-10-31T04:58:14;22.23;;;13.20;;
8574;SDS011;4325;42.520;27.448;2022-10-31T05:00:41;18.27;;;10.50;;
8574;SDS011;4325;42.520;27.448;2022-10-31T05:03:08;17.90;;;8.73;;
8574;SDS011;4325;42.520;27.448;2022-10-31T05:05:35;20.20;;;10.80;;
8574;SDS011;4325;42.520;27.448;2022-10-31T05:08:01;25.93;;;11.60;;
8574;SDS011;4325;42.520;27.448;2022-10-31T05:10:29;14.30;;;9.93;;
8574;SDS011;4325;42.520;27.448;2022-10-31T05:12:58;16.10;;;10.60;;
8574;SDS011;4325;42.520;27.448;2022-10-31T05:15:27;16.27;;;11.27;;
8574;SDS011;4325;42.520;27.448;2022-10-31T05:17:55;21.20;;;11.43;;
8574;SDS011;4325;42.520;27.448;2022-10-31T05:20:23;25.17;;;11.70;;
8574;SDS011;4325;42.520;27.448;2022-10-31T05:22:51;20.27;;;11.17;;
8574;SDS011;4325;42.520;27.448;2022-10-31T05:25:19;21.40;;;11.33;;
8574;SDS011;4325;42.520;27.448;2022-10-31T05:27:47;30.27;;;13.20;;
8574;SDS011;4325;42.520;27.448;2022-10-31T05:30:18;20.20;;;12.37;;
8574;SDS011;4325;42.520;27.448;2022-10-31T05:32:47;25.03;;;13.37;;
8574;SDS011;4325;42.520;27.448;2022-10-31T05:35:16;29.67;;;12.87;;
8574;SDS011;4325;42.520;27.448;2022-10-31T05:37:44;23.83;;;13.03;;
8574;SDS011;4325;42.520;27.448;2022-10-31T05:40:12;23.10;;;12.40;;
8574;SDS011;4325;42.520;27.448;2022-10-31T05:42:40;18.63;;;11.50;;
8574;SDS011;4325;42.520;27.448;2022-10-31T05:45:07;23.73;;;12.13;;
8574;SDS011;4325;42.520;27.448;2022-10-31T05:47:36;29.93;;;12.17;;
8574;SDS011;4325;42.520;27.448;2022-10-31T05:50:04;21.67;;;10.07;;
8574;SDS011;4325;42.520;27.448;2022-10-31T05:52:31;19.60;;;11.47;;
8574;SDS011;4325;42.520;27.448;2022-10-31T05:54:58;30.77;;;11.40;;
8574;SDS011;4325;42.520;27.448;2022-10-31T05:57:25;17.97;;;10.13;;
8574;SDS011;4325;42.520;27.448;2022-10-31T05:59:52;16.67;;;11.10;;
8574;SDS011;4325;42.520;27.448;2022-10-31T06:02:19;32.33;;;11.43;;
8574;SDS011;4325;42.520;27.448;2022-10-31T06:04:47;22.80;;;9.93;;
8574;SDS011;4325;42.520;27.448;2022-10-31T06:07:14;25.33;;;10.80;;
8574;SDS011;4325;42.520;27.448;2022-10-31T06:09:41;22.67;;;11.27;;
8574;SDS011;4325;42.520;27.448;2022-10-31T06:12:08;28.73;;;12.13;;
8574;SDS011;4325;42.520;27.448;2022-10-31T06:14:34;25.80;;;13.40;;
8574;SDS011;4325;42.520;27.448;2022-10-31T06:17:01;26.43;;;11.50;;
8574;SDS011;4325;42.520;27.448;2022-10-31T06:19:28;22.60;;;11.80;;
8574;SDS011;4325;42.520;27.448;2022-10-31T06:21:56;18.07;;;11.33;;
8574;SDS011;4325;42.520;27.448;2022-10-31T06:24:23;28.83;;;11.37;;
8574;SDS011;4325;42.520;27.448;2022-10-31T06:26:50;28.70;;;11.07;;
8574;SDS011;4325;42.520;27.448;2022-10-31T06:29:17;25.40;;;11.70;;
8574;SDS011;4325;42.520;27.448;2022-10-31T06:31:44;27.63;;;11.80;;
8574;SDS011;4325;42.520;27.448;2022-10-31T06:34:10;27.83;;;12.23;;
8574;SDS011;4325;42.520;27.448;2022-10-31T06:36:37;26.67;;;12.87;;
8574;SDS011;4325;42.520;27.448;2022-10-31T06:39:05;25.87;;;12.77;;
8574;SDS011;4325;42.520;27.448;2022-10-31T06:41:32;25.30;;;14.93;;
8574;SDS011;4325;42.520;27.448;2022-10-31T06:44:01;36.60;;;17.37;;
8574;SDS011;4325;42.520;27.448;2022-10-31T06:46:28;20.60;;;12.93;;
8574;SDS011;4325;42.520;27.448;2022-10-31T06:48:55;26.23;;;11.47;;
8574;SDS011;4325;42.520;27.448;2022-10-31T06:51:22;23.10;;;9.77;;
8574;SDS011;4325;42.520;27.448;2022-10-31T06:53:48;32.20;;;9.13;;
8574;SDS011;4325;42.520;27.448;2022-10-31T06:56:17;20.83;;;8.70;;
8574;SDS011;4325;42.520;27.448;2022-10-31T06:58:43;22.30;;;8.43;;
8574;SDS011;4325;42.520;27.448;2022-10-31T07:01:10;24.27;;;8.80;;
8574;SDS011;4325;42.520;27.448;2022-10-31T07:03:37;28.87;;;8.37;;
8574;SDS011;4325;42.520;27.448;2022-10-31T07:06:04;30.10;;;10.30;;
8574;SDS011;4325;42.520;27.448;2022-10-31T07:08:31;21.70;;;9.87;;
8574;SDS011;4325;42.520;27.448;2022-10-31T07:10:58;22.50;;;9.83;;
8574;SDS011;4325;42.520;27.448;2022-10-31T07:13:26;41.07;;;10.80;;
8574;SDS011;4325;42.520;27.448;2022-10-31T07:15:54;34.20;;;14.73;;
8574;SDS011;4325;42.520;27.448;2022-10-31T07:18:25;46.33;;;15.10;;
8574;SDS011;4325;42.520;27.448;2022-10-31T07:20:52;35.93;;;15.03;;
8574;SDS011;4325;42.520;27.448;2022-10-31T07:23:19;34.80;;;13.43;;
8574;SDS011;4325;42.520;27.448;2022-10-31T07:25:47;27.40;;;11.27;;
8574;SDS011;4325;42.520;27.448;2022-10-31T07:28:13;34.50;;;12.93;;
8574;SDS011;4325;42.520;27.448;2022-10-31T07:30:42;33.80;;;10.90;;
8574;SDS011;4325;42.520;27.448;2022-10-31T07:33:09;20.87;;;10.10;;
8574;SDS011;4325;42.520;27.448;2022-10-31T07:35:35;21.70;;;11.10;;
8574;SDS011;4325;42.520;27.448;2022-10-31T07:38:08;17.43;;;10.13;;
8574;SDS011;4325;42.520;27.448;2022-10-31T07:40:36;13.00;;;6.80;;
8574;SDS011;4325;42.520;27.448;2022-10-31T07:43:03;13.93;;;6.23;;
8574;SDS011;4325;42.520;27.448;2022-10-31T07:45:30;7.10;;;5.13;;
8574;SDS011;4325;42.520;27.448;2022-10-31T07:47:58;12.80;;;5.73;;
8574;SDS011;4325;42.520;27.448;2022-10-31T07:50:29;7.60;;;5.57;;
8574;SDS011;4325;42.520;27.448;2022-10-31T07:52:59;10.60;;;6.23;;
8574;SDS011;4325;42.520;27.448;2022-10-31T07:55:26;8.70;;;5.60;;
8574;SDS011;4325;42.520;27.448;2022-10-31T07:57:57;15.17;;;5.90;;
8574;SDS011;4325;42.520;27.448;2022-10-31T08:00:25;15.43;;;5.63;;
8574;SDS011;4325;42.520;27.448;2022-10-31T08:02:56;8.87;;;5.13;;
8574;SDS011;4325;42.520;27.448;2022-10-31T08:05:25;15.10;;;5.93;;
8574;SDS011;4325;42.520;27.448;2022-10-31T08:07:52;12.30;;;6.00;;
8574;SDS011;4325;42.520;27.448;2022-10-31T08:10:19;7.80;;;5.83;;
8574;SDS011;4325;42.520;27.448;2022-10-31T08:12:46;9.60;;;5.60;;
8574;SDS011;4325;42.520;27.448;2022-10-31T08:15:13;12.67;;;6.00;;
8574;SDS011;4325;42.520;27.448;2022-10-31T08:17:40;13.40;;;7.00;;
8574;SDS011;4325;42.520;27.448;2022-10-31T08:20:09;9.03;;;6.37;;
8574;SDS011;4325;42.520;27.448;2022-10-31T08:22:36;28.83;;;7.07;;
8574;SDS011;4325;42.520;27.448;2022-10-31T08:25:03;14.07;;;6.60;;
8574;SDS011;4325;42.520;27.448;2022-10-31T08:27:30;17.63;;;7.20;;
8574;SDS011;4325;42.520;27.448;2022-10-31T08:29:57;15.93;;;5.90;;
8574;SDS011;4325;42.520;27.448;2022-10-31T08:32:24;10.90;;;6.23;;
8574;SDS011;4325;42.520;27.448;2022-10-31T08:34:51;9.60;;;5.97;;
8574;SDS011;4325;42.520;27.448;2022-10-31T08:37:19;17.73;;;6.70;;
8574;SDS011;4325;42.520;27.448;2022-10-31T08:39:46;22.60;;;6.80;;
8574;SDS011;4325;42.520;27.448;2022-10-31T08:42:13;13.77;;;6.03;;
8574;SDS011;4325;42.520;27.448;2022-10-31T08:44:40;13.87;;;6.47;;
8574;SDS011;4325;42.520;27.448;2022-10-31T08:47:07;16.17;;;5.90;;
8574;SDS011;4325;42.520;27.448;2022-10-31T08:49:34;11.00;;;5.77;;
8574;SDS011;4325;42.520;27.448;2022-10-31T08:52:00;11.95;;;5.65;;
8574;SDS011;4325;42.520;27.448;2022-10-31T08:54:29;8.15;;;5.13;;
8574;SDS011;4325;42.520;27.448;2022-10-31T08:56:56;6.95;;;5.22;;
8574;SDS011;4325;42.520;27.448;2022-10-31T08:59:22;11.55;;;5.65;;
8574;SDS011;4325;42.520;27.448;2022-10-31T09:01:49;9.38;;;4.93;;
8574;SDS011;4325;42.520;27.448;2022-10-31T09:04:16;9.02;;;5.32;;
8574;SDS011;4325;42.520;27.448;2022-10-31T09:06:43;8.63;;;5.20;;
8574;SDS011;4325;42.520;27.448;2022-10-31T09:09:10;10.85;;;5.57;;
8574;SDS011;4325;42.520;27.448;2022-10-31T09:11:38;12.75;;;5.20;;
8574;SDS011;4325;42.520;27.448;2022-10-31T09:14:06;13.23;;;5.88;;
8574;SDS011;4325;42.520;27.448;2022-10-31T09:16:33;16.30;;;6.18;;
8574;SDS011;4325;42.520;27.448;2022-10-31T09:19:00;11.55;;;5.93;;
8574;SDS011;4325;42.520;27.448;2022-10-31T09:21:26;8.63;;;5.65;;
8574;SDS011;4325;42.520;27.448;2022-10-31T09:23:53;8.70;;;5.47;;
8574;SDS011;4325;42.520;27.448;2022-10-31T09:26:20;9.35;;;4.97;;
8574;SDS011;4325;42.520;27.448;2022-10-31T09:28:48;11.88;;;5.70;;
8574;SDS011;4325;42.520;27.448;2022-10-31T09:31:15;9.23;;;5.50;;
8574;SDS011;4325;42.520;27.448;2022-10-31T09:33:42;10.25;;;6.50;;
8574;SDS011;4325;42.520;27.448;2022-10-31T09:36:09;11.13;;;6.20;;
8574;SDS011;4325;42.520;27.448;2022-10-31T09:38:36;10.68;;;5.57;;
8574;SDS011;4325;42.520;27.448;2022-10-31T09:41:05;13.20;;;5.97;;
8574;SDS011;4325;42.520;27.448;2022-10-31T09:43:44;10.90;;;5.72;;
8574;SDS011;4325;42.520;27.448;2022-10-31T09:46:22;7.68;;;5.80;;
8574;SDS011;4325;42.520;27.448;2022-10-31T09:49:03;9.02;;;5.75;;
8574;SDS011;4325;42.520;27.448;2022-10-31T09:51:44;10.80;;;6.00;;
8574;SDS011;4325;42.520;27.448;2022-10-31T09:54:16;6.72;;;5.88;;
8574;SDS011;4325;42.520;27.448;2022-10-31T09:56:46;10.15;;;6.53;;
8574;SDS011;4325;42.520;27.448;2022-10-31T09:59:16;8.73;;;6.25;;
8574;SDS011;4325;42.520;27.448;2022-10-31T10:01:51;13.00;;;6.65;;
8574;SDS011;4325;42.520;27.448;2022-10-31T10:04:28;8.68;;;6.45;;
8574;SDS011;4325;42.520;27.448;2022-10-31T10:07:00;10.00;;;5.63;;
8574;SDS011;4325;42.520;27.448;2022-10-31T10:09:32;8.90;;;6.10;;
8574;SDS011;4325;42.520;27.448;2022-10-31T10:12:02;10.52;;;6.55;;
8574;SDS011;4325;42.520;27.448;2022-10-31T10:14:39;12.68;;;6.22;;
8574;SDS011;4325;42.520;27.448;2022-10-31T10:17:20;10.07;;;5.90;;
8574;SDS011;4325;42.520;27.448;2022-10-31T10:20:02;12.45;;;6.57;;
8574;SDS011;4325;42.520;27.448;2022-10-31T10:22:41;11.20;;;6.82;;
8574;SDS011;4325;42.520;27.448;2022-10-31T10:25:14;8.27;;;6.13;;
8574;SDS011;4325;42.520;27.448;2022-10-31T10:27:49;9.25;;;5.78;;
8574;SDS011;4325;42.520;27.448;2022-10-31T10:30:26;9.75;;;6.05;;
8574;SDS011;4325;42.520;27.448;2022-10-31T10:33:03;10.85;;;6.20;;
8574;SDS011;4325;42.520;27.448;2022-10-31T10:35:34;9.43;;;6.32;;
8574;SDS011;4325;42.520;27.448;2022-10-31T10:38:09;11.75;;;6.18;;
8574;SDS011;4325;42.520;27.448;2022-10-31T10:40:41;9.75;;;6.10;;
8574;SDS011;4325;42.520;27.448;2022-10-31T10:43:17;13.40;;;6.15;;
8574;SDS011;4325;42.520;27.448;2022-10-31T10:45:50;9.37;;;6.20;;
8574;SDS011;4325;42.520;27.448;2022-10-31T10:48:43;9.57;;;6.43;;
8574;SDS011;4325;42.520;27.448;2022-10-31T10:51:15;10.83;;;5.93;;
8574;SDS011;4325;42.520;27.448;2022-10-31T10:53:50;9.60;;;6.23;;
8574;SDS011;4325;42.520;27.448;2022-10-31T10:56:39;10.40;;;6.43;;
8574;SDS011;4325;42.520;27.448;2022-10-31T10:59:16;11.70;;;5.75;;
8574;SDS011;4325;42.520;27.448;2022-10-31T11:01:45;10.43;;;6.22;;
8574;SDS011;4325;42.520;27.448;2022-10-31T11:04:23;7.63;;;5.68;;
8574;SDS011;4325;42.520;27.448;2022-10-31T11:06:56;12.25;;;6.22;;
8574;SDS011;4325;42.520;27.448;2022-10-31T11:09:24;12.38;;;6.07;;
8574;SDS011;4325;42.520;27.448;2022-10-31T11:11:51;9.65;;;6.10;;
8574;SDS011;4325;42.520;27.448;2022-10-31T11:14:18;9.93;;;6.15;;
8574;SDS011;4325;42.520;27.448;2022-10-31T11:16:47;10.90;;;5.72;;
8574;SDS011;4325;42.520;27.448;2022-10-31T11:19:16;10.35;;;6.32;;
8574;SDS011;4325;42.520;27.448;2022-10-31T11:21:46;11.23;;;5.97;;
8574;SDS011;4325;42.520;27.448;2022-10-31T11:24:15;7.80;;;6.20;;
8574;SDS011;4325;42.520;27.448;2022-10-31T11:26:44;10.52;;;5.93;;
8574;SDS011;4325;42.520;27.448;2022-10-31T11:29:13;12.27;;;6.53;;
8574;SDS011;4325;42.520;27.448;2022-10-31T11:31:43;11.27;;;5.97;;
8574;SDS011;4325;42.520;27.448;2022-10-31T11:34:16;10.53;;;5.87;;
8574;SDS011;4325;42.520;27.448;2022-10-31T11:36:50;11.33;;;6.30;;
8574;SDS011;4325;42.520;27.448;2022-10-31T11:39:18;9.57;;;5.93;;
8574;SDS011;4325;42.520;27.448;2022-10-31T11:41:50;12.70;;;6.10;;
8574;SDS011;4325;42.520;27.448;2022-10-31T11:44:20;10.98;;;6.32;;
8574;SDS011;4325;42.520;27.448;2022-10-31T11:46:50;11.85;;;6.00;;
8574;SDS011;4325;42.520;27.448;2022-10-31T11:49:19;20.95;;;6.40;;
8574;SDS011;4325;42.520;27.448;2022-10-31T11:51:52;12.00;;;6.60;;
8574;SDS011;4325;42.520;27.448;2022-10-31T11:54:23;10.05;;;6.07;;
8574;SDS011;4325;42.520;27.448;2022-10-31T11:56:54;9.13;;;6.20;;
8574;SDS011;4325;42.520;27.448;2022-10-31T11:59:23;11.95;;;6.60;;
8574;SDS011;4325;42.520;27.448;2022-10-31T12:01:53;9.73;;;5.38;;
8574;SDS011;4325;42.520;27.448;2022-10-31T12:04:28;14.55;;;6.13;;
8574;SDS011;4325;42.520;27.448;2022-10-31T12:07:00;9.63;;;6.13;;
8574;SDS011;4325;42.520;27.448;2022-10-31T12:09:28;7.70;;;5.18;;
8574;SDS011;4325;42.520;27.448;2022-10-31T12:15:03;11.93;;;5.35;;
8574;SDS011;4325;42.520;27.448;2022-10-31T12:17:43;8.60;;;5.38;;
8574;SDS011;4325;42.520;27.448;2022-10-31T12:20:18;9.25;;;5.35;;
8574;SDS011;4325;42.520;27.448;2022-10-31T12:22:52;9.55;;;4.88;;
8574;SDS011;4325;42.520;27.448;2022-10-31T12:25:29;13.27;;;7.63;;
8574;SDS011;4325;42.520;27.448;2022-10-31T12:28:28;10.27;;;5.50;;
8574;SDS011;4325;42.520;27.448;2022-10-31T12:31:08;9.07;;;5.15;;
8574;SDS011;4325;42.520;27.448;2022-10-31T12:33:49;12.23;;;4.85;;
8574;SDS011;4325;42.520;27.448;2022-10-31T12:36:30;11.38;;;5.85;;
8574;SDS011;4325;42.520;27.448;2022-10-31T12:39:12;9.20;;;4.90;;
8574;SDS011;4325;42.520;27.448;2022-10-31T12:41:47;7.75;;;5.47;;
8574;SDS011;4325;42.520;27.448;2022-10-31T12:47:25;11.43;;;5.50;;
8574;SDS011;4325;42.520;27.448;2022-10-31T12:50:02;14.05;;;6.05;;
8574;SDS011;4325;42.520;27.448;2022-10-31T12:52:48;13.27;;;5.47;;
8574;SDS011;4325;42.520;27.448;2022-10-31T12:55:35;9.43;;;5.18;;
8574;SDS011;4325;42.520;27.448;2022-10-31T12:58:09;7.32;;;5.30;;
8574;SDS011;4325;42.520;27.448;2022-10-31T13:00:41;13.43;;;6.20;;
8574;SDS011;4325;42.520;27.448;2022-10-31T13:03:21;11.70;;;5.40;;
8574;SDS011;4325;42.520;27.448;2022-10-31T13:05:53;15.18;;;5.70;;
8574;SDS011;4325;42.520;27.448;2022-10-31T13:08:25;9.40;;;5.82;;
8574;SDS011;4325;42.520;27.448;2022-10-31T13:11:02;9.25;;;5.38;;
8574;SDS011;4325;42.520;27.448;2022-10-31T13:13:33;11.95;;;5.40;;
8574;SDS011;4325;42.520;27.448;2022-10-31T13:16:09;9.10;;;5.63;;
8574;SDS011;4325;42.520;27.448;2022-10-31T13:18:42;12.43;;;5.80;;
8574;SDS011;4325;42.520;27.448;2022-10-31T13:21:16;8.90;;;5.35;;
8574;SDS011;4325;42.520;27.448;2022-10-31T13:23:47;9.90;;;5.45;;
8574;SDS011;4325;42.520;27.448;2022-10-31T13:26:18;7.55;;;5.72;;
8574;SDS011;4325;42.520;27.448;2022-10-31T13:28:51;8.23;;;5.60;;
8574;SDS011;4325;42.520;27.448;2022-10-31T13:31:25;20.48;;;5.93;;
8574;SDS011;4325;42.520;27.448;2022-10-31T13:33:53;12.90;;;5.53;;
8574;SDS011;4325;42.520;27.448;2022-10-31T13:36:24;11.57;;;5.50;;
8574;SDS011;4325;42.520;27.448;2022-10-31T13:38:59;15.40;;;5.87;;
8574;SDS011;4325;42.520;27.448;2022-10-31T13:41:40;13.73;;;5.70;;
8574;SDS011;4325;42.520;27.448;2022-10-31T13:44:14;9.07;;;5.80;;
8574;SDS011;4325;42.520;27.448;2022-10-31T13:46:45;9.87;;;5.70;;
8574;SDS011;4325;42.520;27.448;2022-10-31T13:49:23;8.87;;;5.93;;
8574;SDS011;4325;42.520;27.448;2022-10-31T13:51:52;8.47;;;5.83;;
8574;SDS011;4325;42.520;27.448;2022-10-31T13:54:20;10.73;;;5.83;;
8574;SDS011;4325;42.520;27.448;2022-10-31T13:56:50;7.43;;;5.50;;
8574;SDS011;4325;42.520;27.448;2022-10-31T13:59:19;10.47;;;6.40;;
8574;SDS011;4325;42.520;27.448;2022-10-31T14:01:49;13.03;;;6.40;;
8574;SDS011;4325;42.520;27.448;2022-10-31T14:04:20;12.33;;;6.40;;
8574;SDS011;4325;42.520;27.448;2022-10-31T14:06:53;13.97;;;7.57;;
8574;SDS011;4325;42.520;27.448;2022-10-31T14:09:25;10.03;;;6.57;;
8574;SDS011;4325;42.520;27.448;2022-10-31T14:11:56;16.83;;;6.80;;
8574;SDS011;4325;42.520;27.448;2022-10-31T14:14:28;12.23;;;6.43;;
8574;SDS011;4325;42.520;27.448;2022-10-31T14:16:58;18.27;;;7.00;;
8574;SDS011;4325;42.520;27.448;2022-10-31T14:19:26;13.30;;;6.53;;
8574;SDS011;4325;42.520;27.448;2022-10-31T14:21:53;10.03;;;6.43;;
8574;SDS011;4325;42.520;27.448;2022-10-31T14:24:33;10.83;;;6.90;;
8574;SDS011;4325;42.520;27.448;2022-10-31T14:27:04;12.53;;;7.43;;
8574;SDS011;4325;42.520;27.448;2022-10-31T14:29:46;17.57;;;6.63;;
8574;SDS011;4325;42.520;27.448;2022-10-31T14:32:17;9.00;;;6.40;;
8574;SDS011;4325;42.520;27.448;2022-10-31T14:34:52;14.10;;;6.77;;
8574;SDS011;4325;42.520;27.448;2022-10-31T14:37:40;12.40;;;7.63;;
8574;SDS011;4325;42.520;27.448;2022-10-31T14:40:24;18.90;;;7.00;;
8574;SDS011;4325;42.520;27.448;2022-10-31T14:46:00;11.57;;;7.57;;
8574;SDS011;4325;42.520;27.448;2022-10-31T14:48:33;14.43;;;8.63;;
8574;SDS011;4325;42.520;27.448;2022-10-31T14:51:17;14.73;;;8.47;;
8574;SDS011;4325;42.520;27.448;2022-10-31T14:53:47;13.07;;;7.70;;
8574;SDS011;4325;42.520;27.448;2022-10-31T14:56:19;19.50;;;8.77;;
8574;SDS011;4325;42.520;27.448;2022-10-31T14:58:50;11.87;;;7.13;;
8574;SDS011;4325;42.520;27.448;2022-10-31T15:01:22;16.73;;;7.50;;
8574;SDS011;4325;42.520;27.448;2022-10-31T15:03:52;17.23;;;6.83;;
8574;SDS011;4325;42.520;27.448;2022-10-31T15:06:23;16.57;;;7.43;;
8574;SDS011;4325;42.520;27.448;2022-10-31T15:08:52;15.80;;;7.47;;
8574;SDS011;4325;42.520;27.448;2022-10-31T15:11:20;13.73;;;7.37;;
8574;SDS011;4325;42.520;27.448;2022-10-31T15:13:50;25.17;;;7.73;;
8574;SDS011;4325;42.520;27.448;2022-10-31T15:16:18;9.33;;;7.30;;
8574;SDS011;4325;42.520;27.448;2022-10-31T15:18:50;16.83;;;8.30;;